Weerstation
Sluispark-LeuvenLeuven-Sluispark



Het weer levert geen direct gevaar op.    Er zijn geen waarschuwingen afgegeven.

Nabijgelegen vliegvelden - METAR rapporten

   
EBBR - Wilsele bij Leuven
Gewijzigd: 20-10-2019 07:50
Gedeeltelijk bewolkt    Wind: ZZO 5.6 km/h
Gedeeltelijk bewolkt
Wind: Wind: ZZO 5.6 km/h
Temperatuur: 9°C
Voelt als: 8°C
Dauwpunt: 8°C
Vochtigheid: 94%
Barometer: 1007 hPa
Bewolking: Gedeeltelijk bewolkt
Zicht: 8 km
Bewolking: Gedeeltelijk bewolkt
EBBR 200550Z 16003KT 8000 NSC 09/08 Q1007 NOSIG
EBAW - Antwerp
Gewijzigd: 20-10-2019 07:50
Nevel, Shallow Fog, Gedeeltelijk bewolkt    Wind: OZO 3.7 km/h
Nevel, Shallow Fog, Gedeeltelijk bewolkt
Wind: Wind: OZO 3.7 km/h
Temperatuur: 8°C
Dauwpunt: 8°C
Vochtigheid: 100%
Barometer: 1007 hPa
Bewolking: Gedeeltelijk bewolkt
Zicht: 2 km
Bewolking: Gedeeltelijk bewolkt
EBAW 200550Z 11002KT 2000 R11/0900N R29/1400U BR MIFG NSC 08/08 Q1007 TEMPO 1500 BR MIFG
EBLG - Li├Ęge
Gewijzigd: 20-10-2019 07:50
Grotendeels bewolkt    Wind: Oosten 5.6 km/h
Grotendeels bewolkt
Wind: Wind: Oosten 5.6 km/h
Temperatuur: 11°C
Dauwpunt: 10°C
Vochtigheid: 94%
Barometer: 1007 hPa
Bewolking: Grotendeels bewolkt
Zicht: meer dan 10 km
Bewolking: Licht bewolkt 365.8 m,
Gedeeltelijk bewolkt 640.1 m,
Grotendeels bewolkt 1371.6 m
EBLG 200550Z 10003KT 070V150 9999 FEW012 SCT021 BKN045 11/10 Q1007 NOSIG
EBCV - Mons/Bergen
Gewijzigd: 20-10-2019 07:55
Nevel, Bewolking    Wind: varieert 3.7 km/h
Nevel, Bewolking
Wind: Wind: varieert 3.7 km/h
Temperatuur: 9°C
Dauwpunt: 9°C
Vochtigheid: 100%
Barometer: 1007 hPa
Bewolking: Bewolking
Zicht: 5 km
Bewolking: Bewolking 2773.7 m
EBCV 200555Z AUTO VRB02KT 4700 BR OVC091/// 09/09 Q1007 GRN
EHBK - Maastricht
Gewijzigd: 20-10-2019 07:55
Bewolking    Wind: Kalm
Bewolking
Wind: Wind: Kalm
Temperatuur: 11°C
Dauwpunt: 10°C
Vochtigheid: 94%
Barometer: 1007 hPa
Bewolking: Bewolking
Zicht: meer dan 10 km
Bewolking: Grotendeels bewolkt 1249.7 m,
Bewolking 1402.1 m
EHBK 200555Z AUTO 00000KT 9999 BKN041 OVC046 11/10 Q1007 NOSIG
ELLX - Luxemburg
Gewijzigd: 20-10-2019 07:50
Mist, Bewolking    Wind: Oosten 7.4 km/h
Mist, Bewolking
Wind: Wind: Oosten 7.4 km/h
Temperatuur: 11°C
Dauwpunt: 11°C
Vochtigheid: 100%
Barometer: 1007 hPa
Bewolking: Bewolking
Zicht: 1 km
Bewolking: Bewolking
ELLX 200550Z 09004KT 060V130 0500 R24/0600V0900U FG VV000 11/11 Q1007 RERA TEMPO 0300
EBOS - Oostende
Gewijzigd: 20-10-2019 07:50
Licht bewolkt    Wind: ZZO 3.7 km/h
Licht bewolkt
Wind: Wind: ZZO 3.7 km/h
Temperatuur: 8°C
Dauwpunt: 7°C
Vochtigheid: 93%
Barometer: 1007 hPa
Bewolking: Licht bewolkt
Zicht: 7 km
Bewolking: Licht bewolkt 609.6 m
EBOS 200550Z 15002KT 7000 FEW020 08/07 Q1007 NOSIG
  

Script ontwikkeld door  Saratoga-weather.org Aangepast voor de template door  Weerstation Leuven

U vindt ons ook hier:

UK Metoffice

WeatherCloud

European Weather Network

Weather Underground

Benelux Weather Network

AWEKAS

WeatherlinkIP

Het Weer Aktueel

Apparatuur in gebruik:

Weer-station
Davis VP2 weatherstation

Weer-programma
Meteobridge

Weer-computer
D-Link DIR-505

Webleverancier
Robohost

Davis VP2 weatherstation

Meteobridge

D-Link DIR-505

Robohost